sensor_id;sensor_type;location;lat;lon;timestamp;P1;durP1;ratioP1;P2;durP2;ratioP2
69401;SDS011;56589;51.992;5.924;2023-08-06T00:00:23;12.77;;;6.95;;
69401;SDS011;56589;51.992;5.924;2023-08-06T00:02:49;11.23;;;6.70;;
69401;SDS011;56589;51.992;5.924;2023-08-06T00:05:15;9.25;;;5.90;;
69401;SDS011;56589;51.992;5.924;2023-08-06T00:07:41;9.30;;;6.75;;
69401;SDS011;56589;51.992;5.924;2023-08-06T00:10:10;9.02;;;6.57;;
69401;SDS011;56589;51.992;5.924;2023-08-06T00:12:35;10.05;;;5.93;;
69401;SDS011;56589;51.992;5.924;2023-08-06T00:15:01;9.15;;;6.30;;
69401;SDS011;56589;51.992;5.924;2023-08-06T00:17:28;15.20;;;6.45;;
69401;SDS011;56589;51.992;5.924;2023-08-06T00:19:54;9.48;;;6.10;;
69401;SDS011;56589;51.992;5.924;2023-08-06T00:22:19;10.77;;;6.20;;
69401;SDS011;56589;51.992;5.924;2023-08-06T00:24:45;8.57;;;6.15;;
69401;SDS011;56589;51.992;5.924;2023-08-06T00:27:14;8.82;;;6.00;;
69401;SDS011;56589;51.992;5.924;2023-08-06T00:29:40;8.15;;;6.22;;
69401;SDS011;56589;51.992;5.924;2023-08-06T00:32:05;10.23;;;6.28;;
69401;SDS011;56589;51.992;5.924;2023-08-06T00:34:31;10.57;;;6.20;;
69401;SDS011;56589;51.992;5.924;2023-08-06T00:36:57;7.60;;;6.15;;
69401;SDS011;56589;51.992;5.924;2023-08-06T00:39:23;8.82;;;6.47;;
69401;SDS011;56589;51.992;5.924;2023-08-06T00:41:49;7.75;;;5.93;;
69401;SDS011;56589;51.992;5.924;2023-08-06T00:44:17;7.65;;;6.35;;
69401;SDS011;56589;51.992;5.924;2023-08-06T00:46:43;9.88;;;6.78;;
69401;SDS011;56589;51.992;5.924;2023-08-06T00:49:09;9.05;;;7.32;;
69401;SDS011;56589;51.992;5.924;2023-08-06T00:51:35;10.70;;;7.25;;
69401;SDS011;56589;51.992;5.924;2023-08-06T00:54:01;13.88;;;7.82;;
69401;SDS011;56589;51.992;5.924;2023-08-06T00:56:27;12.65;;;8.13;;
69401;SDS011;56589;51.992;5.924;2023-08-06T00:58:54;10.75;;;7.80;;
69401;SDS011;56589;51.992;5.924;2023-08-06T01:01:23;9.70;;;7.47;;
69401;SDS011;56589;51.992;5.924;2023-08-06T01:03:49;8.13;;;6.65;;
69401;SDS011;56589;51.992;5.924;2023-08-06T01:06:15;7.63;;;6.78;;
69401;SDS011;56589;51.992;5.924;2023-08-06T01:08:58;10.55;;;6.90;;
69401;SDS011;56589;51.992;5.924;2023-08-06T01:11:38;11.25;;;6.22;;
69401;SDS011;56589;51.992;5.924;2023-08-06T01:14:16;10.18;;;6.97;;
69401;SDS011;56589;51.992;5.924;2023-08-06T01:16:55;9.75;;;6.60;;
69401;SDS011;56589;51.992;5.924;2023-08-06T01:19:24;14.35;;;7.57;;
69401;SDS011;56589;51.992;5.924;2023-08-06T01:21:52;9.60;;;5.82;;
69401;SDS011;56589;51.992;5.924;2023-08-06T01:24:18;7.30;;;6.13;;
69401;SDS011;56589;51.992;5.924;2023-08-06T01:26:45;11.77;;;7.53;;
69401;SDS011;56589;51.992;5.924;2023-08-06T01:29:25;9.70;;;6.47;;
69401;SDS011;56589;51.992;5.924;2023-08-06T01:31:59;15.93;;;7.50;;
69401;SDS011;56589;51.992;5.924;2023-08-06T01:34:28;12.32;;;7.35;;
69401;SDS011;56589;51.992;5.924;2023-08-06T01:37:01;9.00;;;7.03;;
69401;SDS011;56589;51.992;5.924;2023-08-06T01:39:30;11.82;;;7.53;;
69401;SDS011;56589;51.992;5.924;2023-08-06T01:41:59;11.07;;;7.72;;
69401;SDS011;56589;51.992;5.924;2023-08-06T01:44:25;13.57;;;7.60;;
69401;SDS011;56589;51.992;5.924;2023-08-06T01:46:51;12.30;;;8.13;;
69401;SDS011;56589;51.992;5.924;2023-08-06T01:49:17;14.75;;;7.65;;
69401;SDS011;56589;51.992;5.924;2023-08-06T01:51:43;18.35;;;8.55;;
69401;SDS011;56589;51.992;5.924;2023-08-06T01:54:11;14.45;;;8.98;;
69401;SDS011;56589;51.992;5.924;2023-08-06T01:56:37;17.08;;;9.70;;
69401;SDS011;56589;51.992;5.924;2023-08-06T01:59:03;17.08;;;9.85;;
69401;SDS011;56589;51.992;5.924;2023-08-06T02:01:29;16.20;;;9.68;;
69401;SDS011;56589;51.992;5.924;2023-08-06T02:03:55;16.75;;;10.82;;
69401;SDS011;56589;51.992;5.924;2023-08-06T02:06:21;16.13;;;10.38;;
69401;SDS011;56589;51.992;5.924;2023-08-06T02:08:46;17.73;;;10.60;;
69401;SDS011;56589;51.992;5.924;2023-08-06T02:11:15;14.52;;;10.45;;
69401;SDS011;56589;51.992;5.924;2023-08-06T02:13:41;18.25;;;11.13;;
69401;SDS011;56589;51.992;5.924;2023-08-06T02:16:06;16.30;;;10.98;;
69401;SDS011;56589;51.992;5.924;2023-08-06T02:18:32;17.85;;;10.60;;
69401;SDS011;56589;51.992;5.924;2023-08-06T02:20:58;15.43;;;11.10;;
69401;SDS011;56589;51.992;5.924;2023-08-06T02:23:25;19.60;;;12.18;;
69401;SDS011;56589;51.992;5.924;2023-08-06T02:25:56;16.83;;;11.60;;
69401;SDS011;56589;51.992;5.924;2023-08-06T02:28:26;19.40;;;11.82;;
69401;SDS011;56589;51.992;5.924;2023-08-06T02:30:53;15.43;;;10.20;;
69401;SDS011;56589;51.992;5.924;2023-08-06T02:33:19;17.10;;;11.05;;
69401;SDS011;56589;51.992;5.924;2023-08-06T02:35:45;16.55;;;10.70;;
69401;SDS011;56589;51.992;5.924;2023-08-06T02:38:10;17.10;;;10.27;;
69401;SDS011;56589;51.992;5.924;2023-08-06T02:40:36;17.83;;;10.52;;
69401;SDS011;56589;51.992;5.924;2023-08-06T02:43:08;18.48;;;9.52;;
69401;SDS011;56589;51.992;5.924;2023-08-06T02:45:37;14.35;;;9.57;;
69401;SDS011;56589;51.992;5.924;2023-08-06T02:48:03;17.30;;;9.23;;
69401;SDS011;56589;51.992;5.924;2023-08-06T02:50:29;15.65;;;9.05;;
69401;SDS011;56589;51.992;5.924;2023-08-06T02:52:55;12.30;;;8.48;;
69401;SDS011;56589;51.992;5.924;2023-08-06T02:55:21;12.30;;;7.57;;
69401;SDS011;56589;51.992;5.924;2023-08-06T02:57:47;16.13;;;7.78;;
69401;SDS011;56589;51.992;5.924;2023-08-06T03:00:13;13.02;;;7.93;;
69401;SDS011;56589;51.992;5.924;2023-08-06T03:02:42;12.85;;;7.38;;
69401;SDS011;56589;51.992;5.924;2023-08-06T03:05:08;14.20;;;6.90;;
69401;SDS011;56589;51.992;5.924;2023-08-06T03:07:33;9.70;;;6.32;;
69401;SDS011;56589;51.992;5.924;2023-08-06T03:09:59;9.05;;;6.13;;
69401;SDS011;56589;51.992;5.924;2023-08-06T03:12:25;9.45;;;5.90;;
69401;SDS011;56589;51.992;5.924;2023-08-06T03:14:51;13.93;;;5.88;;
69401;SDS011;56589;51.992;5.924;2023-08-06T03:17:17;10.63;;;5.35;;
69401;SDS011;56589;51.992;5.924;2023-08-06T03:19:45;10.07;;;5.63;;
69401;SDS011;56589;51.992;5.924;2023-08-06T03:22:11;11.80;;;5.80;;
69401;SDS011;56589;51.992;5.924;2023-08-06T03:24:37;9.05;;;5.53;;
69401;SDS011;56589;51.992;5.924;2023-08-06T03:27:03;9.73;;;5.72;;
69401;SDS011;56589;51.992;5.924;2023-08-06T03:29:30;10.00;;;6.18;;
69401;SDS011;56589;51.992;5.924;2023-08-06T03:31:56;10.65;;;5.97;;
69401;SDS011;56589;51.992;5.924;2023-08-06T03:34:22;11.65;;;6.32;;
69401;SDS011;56589;51.992;5.924;2023-08-06T03:36:50;10.55;;;6.43;;
69401;SDS011;56589;51.992;5.924;2023-08-06T03:39:16;13.70;;;6.55;;
69401;SDS011;56589;51.992;5.924;2023-08-06T03:41:42;12.38;;;7.13;;
69401;SDS011;56589;51.992;5.924;2023-08-06T03:44:08;11.73;;;6.55;;
69401;SDS011;56589;51.992;5.924;2023-08-06T03:46:33;11.07;;;6.60;;
69401;SDS011;56589;51.992;5.924;2023-08-06T03:48:59;14.90;;;7.57;;
69401;SDS011;56589;51.992;5.924;2023-08-06T03:51:25;12.27;;;7.05;;
69401;SDS011;56589;51.992;5.924;2023-08-06T03:53:54;13.68;;;7.38;;
69401;SDS011;56589;51.992;5.924;2023-08-06T03:56:20;12.90;;;6.47;;
69401;SDS011;56589;51.992;5.924;2023-08-06T03:58:46;11.25;;;7.00;;
69401;SDS011;56589;51.992;5.924;2023-08-06T04:01:11;12.20;;;7.13;;
69401;SDS011;56589;51.992;5.924;2023-08-06T04:03:37;13.75;;;6.95;;
69401;SDS011;56589;51.992;5.924;2023-08-06T04:06:03;17.65;;;7.63;;
69401;SDS011;56589;51.992;5.924;2023-08-06T04:08:29;14.50;;;7.40;;
69401;SDS011;56589;51.992;5.924;2023-08-06T04:10:57;15.60;;;8.20;;
69401;SDS011;56589;51.992;5.924;2023-08-06T04:13:23;15.15;;;8.07;;
69401;SDS011;56589;51.992;5.924;2023-08-06T04:15:49;13.90;;;7.30;;
69401;SDS011;56589;51.992;5.924;2023-08-06T04:18:15;10.25;;;7.57;;
69401;SDS011;56589;51.992;5.924;2023-08-06T04:20:44;12.93;;;7.80;;
69401;SDS011;56589;51.992;5.924;2023-08-06T04:23:11;10.88;;;7.53;;
69401;SDS011;56589;51.992;5.924;2023-08-06T04:25:37;15.40;;;7.55;;
69401;SDS011;56589;51.992;5.924;2023-08-06T04:28:06;13.00;;;7.47;;
69401;SDS011;56589;51.992;5.924;2023-08-06T04:30:32;11.23;;;7.95;;
69401;SDS011;56589;51.992;5.924;2023-08-06T04:32:58;12.43;;;8.18;;
69401;SDS011;56589;51.992;5.924;2023-08-06T04:35:24;12.15;;;8.07;;
69401;SDS011;56589;51.992;5.924;2023-08-06T04:37:50;13.82;;;8.25;;
69401;SDS011;56589;51.992;5.924;2023-08-06T04:40:16;15.15;;;8.15;;
69401;SDS011;56589;51.992;5.924;2023-08-06T04:42:42;13.35;;;8.63;;
69401;SDS011;56589;51.992;5.924;2023-08-06T04:45:11;17.00;;;8.73;;
69401;SDS011;56589;51.992;5.924;2023-08-06T04:47:37;17.02;;;9.40;;
69401;SDS011;56589;51.992;5.924;2023-08-06T04:50:03;19.25;;;9.23;;
69401;SDS011;56589;51.992;5.924;2023-08-06T04:52:30;19.10;;;9.10;;
69401;SDS011;56589;51.992;5.924;2023-08-06T04:54:56;13.55;;;8.80;;
69401;SDS011;56589;51.992;5.924;2023-08-06T04:57:22;17.13;;;9.50;;
69401;SDS011;56589;51.992;5.924;2023-08-06T04:59:48;13.88;;;9.52;;
69401;SDS011;56589;51.992;5.924;2023-08-06T05:02:16;17.52;;;9.07;;
69401;SDS011;56589;51.992;5.924;2023-08-06T05:04:42;17.38;;;9.30;;
69401;SDS011;56589;51.992;5.924;2023-08-06T05:07:08;17.75;;;9.68;;
69401;SDS011;56589;51.992;5.924;2023-08-06T05:09:35;14.32;;;8.88;;
69401;SDS011;56589;51.992;5.924;2023-08-06T05:12:01;15.25;;;10.02;;
69401;SDS011;56589;51.992;5.924;2023-08-06T05:14:28;16.73;;;10.18;;
69401;SDS011;56589;51.992;5.924;2023-08-06T05:16:54;18.35;;;9.00;;
69401;SDS011;56589;51.992;5.924;2023-08-06T05:19:23;14.38;;;9.27;;
69401;SDS011;56589;51.992;5.924;2023-08-06T05:21:49;17.13;;;9.43;;
69401;SDS011;56589;51.992;5.924;2023-08-06T05:24:14;16.05;;;9.95;;
69401;SDS011;56589;51.992;5.924;2023-08-06T05:26:40;17.90;;;10.52;;
69401;SDS011;56589;51.992;5.924;2023-08-06T05:29:06;15.73;;;10.82;;
69401;SDS011;56589;51.992;5.924;2023-08-06T05:31:32;17.65;;;10.50;;
69401;SDS011;56589;51.992;5.924;2023-08-06T05:33:58;16.55;;;10.93;;
69401;SDS011;56589;51.992;5.924;2023-08-06T05:36:26;18.25;;;11.60;;
69401;SDS011;56589;51.992;5.924;2023-08-06T05:38:52;18.20;;;11.70;;
69401;SDS011;56589;51.992;5.924;2023-08-06T05:41:18;18.00;;;12.25;;
69401;SDS011;56589;51.992;5.924;2023-08-06T05:43:44;17.60;;;13.05;;
69401;SDS011;56589;51.992;5.924;2023-08-06T05:46:10;24.92;;;13.60;;
69401;SDS011;56589;51.992;5.924;2023-08-06T05:48:36;20.15;;;12.25;;
69401;SDS011;56589;51.992;5.924;2023-08-06T05:51:02;19.83;;;12.80;;
69401;SDS011;56589;51.992;5.924;2023-08-06T05:53:31;24.45;;;13.70;;
69401;SDS011;56589;51.992;5.924;2023-08-06T05:55:56;20.88;;;13.13;;
69401;SDS011;56589;51.992;5.924;2023-08-06T05:58:22;20.52;;;13.80;;
69401;SDS011;56589;51.992;5.924;2023-08-06T06:00:48;21.63;;;14.68;;
69401;SDS011;56589;51.992;5.924;2023-08-06T06:03:14;24.05;;;15.85;;
69401;SDS011;56589;51.992;5.924;2023-08-06T06:05:40;22.10;;;14.25;;
69401;SDS011;56589;51.992;5.924;2023-08-06T06:08:06;21.40;;;15.70;;
69401;SDS011;56589;51.992;5.924;2023-08-06T06:10:34;23.25;;;14.73;;
69401;SDS011;56589;51.992;5.924;2023-08-06T06:13:00;22.88;;;15.55;;
69401;SDS011;56589;51.992;5.924;2023-08-06T06:15:26;23.98;;;14.18;;
69401;SDS011;56589;51.992;5.924;2023-08-06T06:17:52;21.98;;;14.27;;
69401;SDS011;56589;51.992;5.924;2023-08-06T06:20:18;22.15;;;15.10;;
69401;SDS011;56589;51.992;5.924;2023-08-06T06:22:44;21.42;;;14.43;;
69401;SDS011;56589;51.992;5.924;2023-08-06T06:25:10;21.98;;;14.23;;
69401;SDS011;56589;51.992;5.924;2023-08-06T06:27:38;25.55;;;13.45;;
69401;SDS011;56589;51.992;5.924;2023-08-06T06:30:05;21.48;;;14.07;;
69401;SDS011;56589;51.992;5.924;2023-08-06T06:32:33;20.25;;;12.75;;
69401;SDS011;56589;51.992;5.924;2023-08-06T06:34:58;19.00;;;12.68;;
69401;SDS011;56589;51.992;5.924;2023-08-06T06:37:25;20.63;;;13.18;;
69401;SDS011;56589;51.992;5.924;2023-08-06T06:39:50;18.88;;;13.43;;
69401;SDS011;56589;51.992;5.924;2023-08-06T06:42:16;19.45;;;13.98;;
69401;SDS011;56589;51.992;5.924;2023-08-06T06:44:45;18.67;;;13.13;;
69401;SDS011;56589;51.992;5.924;2023-08-06T06:47:11;20.15;;;12.80;;
69401;SDS011;56589;51.992;5.924;2023-08-06T06:49:37;19.40;;;13.65;;
69401;SDS011;56589;51.992;5.924;2023-08-06T06:52:03;17.30;;;12.55;;
69401;SDS011;56589;51.992;5.924;2023-08-06T06:54:30;17.02;;;12.30;;
69401;SDS011;56589;51.992;5.924;2023-08-06T06:56:57;16.17;;;11.75;;
69401;SDS011;56589;51.992;5.924;2023-08-06T06:59:23;18.33;;;12.73;;
69401;SDS011;56589;51.992;5.924;2023-08-06T07:01:51;16.37;;;12.03;;
69401;SDS011;56589;51.992;5.924;2023-08-06T07:04:17;17.63;;;12.15;;
69401;SDS011;56589;51.992;5.924;2023-08-06T07:06:43;17.10;;;12.48;;
69401;SDS011;56589;51.992;5.924;2023-08-06T07:09:08;19.10;;;12.63;;
69401;SDS011;56589;51.992;5.924;2023-08-06T07:11:34;17.27;;;12.65;;
69401;SDS011;56589;51.992;5.924;2023-08-06T07:14:00;18.00;;;11.90;;
69401;SDS011;56589;51.992;5.924;2023-08-06T07:16:26;17.38;;;12.18;;
69401;SDS011;56589;51.992;5.924;2023-08-06T07:18:55;16.92;;;12.05;;
69401;SDS011;56589;51.992;5.924;2023-08-06T07:21:21;15.02;;;11.50;;
69401;SDS011;56589;51.992;5.924;2023-08-06T07:23:47;16.70;;;12.15;;
69401;SDS011;56589;51.992;5.924;2023-08-06T07:26:13;16.50;;;12.25;;
69401;SDS011;56589;51.992;5.924;2023-08-06T07:28:39;15.60;;;12.05;;
69401;SDS011;56589;51.992;5.924;2023-08-06T07:31:04;15.20;;;10.98;;
69401;SDS011;56589;51.992;5.924;2023-08-06T07:33:30;13.43;;;10.40;;
69401;SDS011;56589;51.992;5.924;2023-08-06T07:35:59;14.07;;;10.32;;
69401;SDS011;56589;51.992;5.924;2023-08-06T07:38:24;14.55;;;10.45;;
69401;SDS011;56589;51.992;5.924;2023-08-06T07:40:50;17.20;;;10.55;;
69401;SDS011;56589;51.992;5.924;2023-08-06T07:43:16;12.60;;;9.40;;
69401;SDS011;56589;51.992;5.924;2023-08-06T07:45:42;15.60;;;10.98;;
69401;SDS011;56589;51.992;5.924;2023-08-06T07:48:08;14.05;;;9.95;;
69401;SDS011;56589;51.992;5.924;2023-08-06T07:50:33;14.25;;;10.70;;
69401;SDS011;56589;51.992;5.924;2023-08-06T07:53:02;18.08;;;11.18;;
69401;SDS011;56589;51.992;5.924;2023-08-06T07:55:28;14.32;;;10.48;;
69401;SDS011;56589;51.992;5.924;2023-08-06T07:57:54;15.68;;;11.40;;
69401;SDS011;56589;51.992;5.924;2023-08-06T08:00:19;12.43;;;10.05;;
69401;SDS011;56589;51.992;5.924;2023-08-06T08:02:45;11.85;;;10.00;;
69401;SDS011;56589;51.992;5.924;2023-08-06T08:05:11;13.07;;;10.43;;
69401;SDS011;56589;51.992;5.924;2023-08-06T08:07:37;11.77;;;10.18;;
69401;SDS011;56589;51.992;5.924;2023-08-06T08:10:06;14.00;;;9.93;;
69401;SDS011;56589;51.992;5.924;2023-08-06T08:12:33;14.27;;;10.32;;
69401;SDS011;56589;51.992;5.924;2023-08-06T08:14:58;12.60;;;10.13;;
69401;SDS011;56589;51.992;5.924;2023-08-06T08:17:24;12.00;;;10.38;;
69401;SDS011;56589;51.992;5.924;2023-08-06T08:19:50;17.02;;;10.95;;
69401;SDS011;56589;51.992;5.924;2023-08-06T08:22:16;17.65;;;11.10;;
69401;SDS011;56589;51.992;5.924;2023-08-06T08:24:42;14.77;;;10.15;;
69401;SDS011;56589;51.992;5.924;2023-08-06T08:27:10;19.13;;;10.77;;
69401;SDS011;56589;51.992;5.924;2023-08-06T08:29:36;13.88;;;11.15;;
69401;SDS011;56589;51.992;5.924;2023-08-06T08:32:02;14.73;;;10.98;;
69401;SDS011;56589;51.992;5.924;2023-08-06T08:34:28;12.80;;;10.27;;
69401;SDS011;56589;51.992;5.924;2023-08-06T08:36:54;11.93;;;10.10;;
69401;SDS011;56589;51.992;5.924;2023-08-06T08:39:19;14.27;;;10.63;;
69401;SDS011;56589;51.992;5.924;2023-08-06T08:41:45;12.23;;;9.95;;
69401;SDS011;56589;51.992;5.924;2023-08-06T08:44:14;15.15;;;9.85;;
69401;SDS011;56589;51.992;5.924;2023-08-06T08:46:42;13.57;;;9.73;;
69401;SDS011;56589;51.992;5.924;2023-08-06T08:49:10;12.88;;;10.07;;
69401;SDS011;56589;51.992;5.924;2023-08-06T08:51:36;15.45;;;10.20;;
69401;SDS011;56589;51.992;5.924;2023-08-06T08:54:03;14.52;;;9.25;;
69401;SDS011;56589;51.992;5.924;2023-08-06T08:56:29;13.52;;;9.45;;
69401;SDS011;56589;51.992;5.924;2023-08-06T08:58:57;13.23;;;9.32;;
69401;SDS011;56589;51.992;5.924;2023-08-06T09:01:26;10.98;;;9.05;;
69401;SDS011;56589;51.992;5.924;2023-08-06T09:03:54;13.80;;;9.25;;
69401;SDS011;56589;51.992;5.924;2023-08-06T09:06:23;14.98;;;9.48;;
69401;SDS011;56589;51.992;5.924;2023-08-06T09:08:56;12.75;;;8.73;;
69401;SDS011;56589;51.992;5.924;2023-08-06T09:11:34;8.73;;;7.15;;
69401;SDS011;56589;51.992;5.924;2023-08-06T09:14:07;9.35;;;7.53;;
69401;SDS011;56589;51.992;5.924;2023-08-06T09:16:37;9.52;;;7.72;;
69401;SDS011;56589;51.992;5.924;2023-08-06T09:19:09;9.80;;;7.03;;
69401;SDS011;56589;51.992;5.924;2023-08-06T09:21:36;10.13;;;7.20;;
69401;SDS011;56589;51.992;5.924;2023-08-06T09:24:06;11.50;;;7.18;;
69401;SDS011;56589;51.992;5.924;2023-08-06T09:26:33;7.93;;;6.75;;
69401;SDS011;56589;51.992;5.924;2023-08-06T09:28:59;11.23;;;7.20;;
69401;SDS011;56589;51.992;5.924;2023-08-06T09:31:25;12.05;;;7.55;;
69401;SDS011;56589;51.992;5.924;2023-08-06T09:34:01;8.32;;;7.15;;
69401;SDS011;56589;51.992;5.924;2023-08-06T09:36:27;8.35;;;6.93;;
69401;SDS011;56589;51.992;5.924;2023-08-06T09:38:53;10.27;;;7.18;;
69401;SDS011;56589;51.992;5.924;2023-08-06T09:41:25;10.43;;;7.20;;
69401;SDS011;56589;51.992;5.924;2023-08-06T09:43:52;10.18;;;6.60;;
69401;SDS011;56589;51.992;5.924;2023-08-06T09:46:18;9.73;;;6.75;;
69401;SDS011;56589;51.992;5.924;2023-08-06T09:48:47;6.82;;;6.10;;
69401;SDS011;56589;51.992;5.924;2023-08-06T09:51:19;11.05;;;7.13;;
69401;SDS011;56589;51.992;5.924;2023-08-06T09:53:46;8.05;;;6.47;;
69401;SDS011;56589;51.992;5.924;2023-08-06T09:56:14;8.82;;;6.25;;
69401;SDS011;56589;51.992;5.924;2023-08-06T09:58:43;8.50;;;6.97;;
69401;SDS011;56589;51.992;5.924;2023-08-06T10:01:13;8.82;;;7.78;;
69401;SDS011;56589;51.992;5.924;2023-08-06T10:03:44;11.15;;;7.50;;
69401;SDS011;56589;51.992;5.924;2023-08-06T10:06:15;10.30;;;6.10;;
69401;SDS011;56589;51.992;5.924;2023-08-06T10:08:44;10.18;;;6.18;;
69401;SDS011;56589;51.992;5.924;2023-08-06T10:11:12;8.63;;;6.65;;
69401;SDS011;56589;51.992;5.924;2023-08-06T10:13:42;8.95;;;6.97;;
69401;SDS011;56589;51.992;5.924;2023-08-06T10:16:11;13.90;;;8.30;;
69401;SDS011;56589;51.992;5.924;2023-08-06T10:18:38;14.15;;;8.07;;
69401;SDS011;56589;51.992;5.924;2023-08-06T10:21:07;12.85;;;8.75;;
69401;SDS011;56589;51.992;5.924;2023-08-06T10:23:33;14.25;;;10.48;;
69401;SDS011;56589;51.992;5.924;2023-08-06T10:26:04;13.82;;;11.00;;
69401;SDS011;56589;51.992;5.924;2023-08-06T10:28:34;16.77;;;12.10;;
69401;SDS011;56589;51.992;5.924;2023-08-06T10:31:01;18.70;;;11.73;;
69401;SDS011;56589;51.992;5.924;2023-08-06T10:33:31;17.92;;;13.43;;
69401;SDS011;56589;51.992;5.924;2023-08-06T10:36:06;20.15;;;14.45;;
69401;SDS011;56589;51.992;5.924;2023-08-06T10:38:34;13.95;;;10.65;;
69401;SDS011;56589;51.992;5.924;2023-08-06T10:41:14;12.05;;;8.90;;
69401;SDS011;56589;51.992;5.924;2023-08-06T10:43:44;5.50;;;3.05;;
69401;SDS011;56589;51.992;5.924;2023-08-06T10:46:22;4.03;;;1.77;;
69401;SDS011;56589;51.992;5.924;2023-08-06T10:48:52;2.67;;;1.65;;
69401;SDS011;56589;51.992;5.924;2023-08-06T10:51:20;3.72;;;1.20;;
69401;SDS011;56589;51.992;5.924;2023-08-06T10:53:47;7.90;;;0.88;;
69401;SDS011;56589;51.992;5.924;2023-08-06T10:56:18;4.45;;;1.20;;
69401;SDS011;56589;51.992;5.924;2023-08-06T10:58:46;2.67;;;0.85;;
69401;SDS011;56589;51.992;5.924;2023-08-06T11:01:13;1.10;;;1.00;;
69401;SDS011;56589;51.992;5.924;2023-08-06T11:03:41;4.82;;;0.77;;
69401;SDS011;56589;51.992;5.924;2023-08-06T11:06:08;3.42;;;1.10;;
69401;SDS011;56589;51.992;5.924;2023-08-06T11:08:35;1.38;;;0.95;;
69401;SDS011;56589;51.992;5.924;2023-08-06T11:11:10;2.10;;;0.80;;
69401;SDS011;56589;51.992;5.924;2023-08-06T11:13:40;1.40;;;1.00;;
69401;SDS011;56589;51.992;5.924;2023-08-06T11:16:07;2.58;;;1.10;;
69401;SDS011;56589;51.992;5.924;2023-08-06T11:18:34;1.15;;;0.80;;
69401;SDS011;56589;51.992;5.924;2023-08-06T11:21:00;1.17;;;0.90;;
69401;SDS011;56589;51.992;5.924;2023-08-06T11:23:27;1.73;;;1.08;;
69401;SDS011;56589;51.992;5.924;2023-08-06T11:25:54;2.22;;;0.95;;
69401;SDS011;56589;51.992;5.924;2023-08-06T11:28:20;2.88;;;1.30;;
69401;SDS011;56589;51.992;5.924;2023-08-06T11:30:49;2.30;;;1.00;;
69401;SDS011;56589;51.992;5.924;2023-08-06T11:33:19;4.40;;;1.25;;
69401;SDS011;56589;51.992;5.924;2023-08-06T11:35:46;3.30;;;1.10;;
69401;SDS011;56589;51.992;5.924;2023-08-06T11:38:13;5.72;;;1.40;;
69401;SDS011;56589;51.992;5.924;2023-08-06T11:40:39;4.38;;;1.63;;
69401;SDS011;56589;51.992;5.924;2023-08-06T11:43:05;5.10;;;1.58;;
69401;SDS011;56589;51.992;5.924;2023-08-06T11:45:32;3.83;;;1.80;;
69401;SDS011;56589;51.992;5.924;2023-08-06T11:48:03;2.72;;;1.70;;
69401;SDS011;56589;51.992;5.924;2023-08-06T11:50:30;2.42;;;1.80;;
69401;SDS011;56589;51.992;5.924;2023-08-06T11:52:56;1.95;;;1.45;;
69401;SDS011;56589;51.992;5.924;2023-08-06T11:55:24;2.97;;;1.50;;
69401;SDS011;56589;51.992;5.924;2023-08-06T11:57:51;2.03;;;1.45;;
69401;SDS011;56589;51.992;5.924;2023-08-06T12:00:17;3.13;;;1.48;;
69401;SDS011;56589;51.992;5.924;2023-08-06T12:02:44;4.55;;;1.30;;
69401;SDS011;56589;51.992;5.924;2023-08-06T12:05:14;4.00;;;1.42;;
69401;SDS011;56589;51.992;5.924;2023-08-06T12:07:42;3.67;;;1.52;;
69401;SDS011;56589;51.992;5.924;2023-08-06T12:10:10;6.80;;;1.70;;
69401;SDS011;56589;51.992;5.924;2023-08-06T12:12:38;5.57;;;1.98;;
69401;SDS011;56589;51.992;5.924;2023-08-06T12:15:04;4.75;;;2.35;;
69401;SDS011;56589;51.992;5.924;2023-08-06T12:17:32;3.60;;;2.00;;
69401;SDS011;56589;51.992;5.924;2023-08-06T12:19:58;2.92;;;2.10;;
69401;SDS011;56589;51.992;5.924;2023-08-06T12:22:27;3.67;;;2.15;;
69401;SDS011;56589;51.992;5.924;2023-08-06T12:24:53;3.30;;;2.15;;
69401;SDS011;56589;51.992;5.924;2023-08-06T12:27:19;4.65;;;2.60;;
69401;SDS011;56589;51.992;5.924;2023-08-06T12:29:45;6.65;;;2.38;;
69401;SDS011;56589;51.992;5.924;2023-08-06T12:32:14;3.75;;;2.38;;
69401;SDS011;56589;51.992;5.924;2023-08-06T12:34:40;3.70;;;2.70;;
69401;SDS011;56589;51.992;5.924;2023-08-06T12:37:07;8.70;;;2.75;;
69401;SDS011;56589;51.992;5.924;2023-08-06T12:39:36;4.88;;;2.55;;
69401;SDS011;56589;51.992;5.924;2023-08-06T12:42:03;8.15;;;2.83;;
69401;SDS011;56589;51.992;5.924;2023-08-06T12:44:30;5.03;;;2.88;;
69401;SDS011;56589;51.992;5.924;2023-08-06T12:46:57;4.88;;;2.45;;
69401;SDS011;56589;51.992;5.924;2023-08-06T12:49:24;4.85;;;2.90;;
69401;SDS011;56589;51.992;5.924;2023-08-06T12:51:52;4.57;;;3.47;;
69401;SDS011;56589;51.992;5.924;2023-08-06T12:54:19;6.90;;;3.25;;
69401;SDS011;56589;51.992;5.924;2023-08-06T12:56:48;5.30;;;2.75;;
69401;SDS011;56589;51.992;5.924;2023-08-06T12:59:14;6.55;;;2.88;;
69401;SDS011;56589;51.992;5.924;2023-08-06T13:01:41;7.43;;;2.97;;
69401;SDS011;56589;51.992;5.924;2023-08-06T13:04:08;6.90;;;3.10;;
69401;SDS011;56589;51.992;5.924;2023-08-06T13:06:35;5.38;;;2.80;;
69401;SDS011;56589;51.992;5.924;2023-08-06T13:09:01;6.68;;;2.38;;
69401;SDS011;56589;51.992;5.924;2023-08-06T13:11:27;3.30;;;2.72;;
69401;SDS011;56589;51.992;5.924;2023-08-06T13:13:56;7.22;;;2.97;;
69401;SDS011;56589;51.992;5.924;2023-08-06T13:16:28;5.93;;;2.85;;
69401;SDS011;56589;51.992;5.924;2023-08-06T13:18:54;6.55;;;3.15;;
69401;SDS011;56589;51.992;5.924;2023-08-06T13:21:20;7.35;;;2.88;;
69401;SDS011;56589;51.992;5.924;2023-08-06T13:23:46;6.55;;;2.97;;
69401;SDS011;56589;51.992;5.924;2023-08-06T13:26:12;7.72;;;2.50;;
69401;SDS011;56589;51.992;5.924;2023-08-06T13:28:38;6.47;;;2.92;;
69401;SDS011;56589;51.992;5.924;2023-08-06T13:31:06;8.65;;;2.60;;
69401;SDS011;56589;51.992;5.924;2023-08-06T13:33:32;5.22;;;2.47;;
69401;SDS011;56589;51.992;5.924;2023-08-06T13:35:58;7.50;;;3.80;;
69401;SDS011;56589;51.992;5.924;2023-08-06T13:38:24;5.35;;;3.13;;
69401;SDS011;56589;51.992;5.924;2023-08-06T13:40:50;7.15;;;3.58;;
69401;SDS011;56589;51.992;5.924;2023-08-06T13:43:16;9.48;;;3.22;;
69401;SDS011;56589;51.992;5.924;2023-08-06T13:45:42;5.68;;;2.72;;
69401;SDS011;56589;51.992;5.924;2023-08-06T13:48:10;6.18;;;3.20;;
69401;SDS011;56589;51.992;5.924;2023-08-06T13:50:36;4.90;;;3.00;;
69401;SDS011;56589;51.992;5.924;2023-08-06T13:53:02;9.60;;;3.22;;
69401;SDS011;56589;51.992;5.924;2023-08-06T13:55:28;6.45;;;3.38;;
69401;SDS011;56589;51.992;5.924;2023-08-06T13:57:55;4.72;;;2.60;;
69401;SDS011;56589;51.992;5.924;2023-08-06T14:00:21;6.40;;;3.30;;
69401;SDS011;56589;51.992;5.924;2023-08-06T14:02:48;6.00;;;2.90;;
69401;SDS011;56589;51.992;5.924;2023-08-06T14:05:17;6.45;;;2.63;;
69401;SDS011;56589;51.992;5.924;2023-08-06T14:07:44;7.28;;;3.65;;
69401;SDS011;56589;51.992;5.924;2023-08-06T14:10:11;6.95;;;2.92;;
69401;SDS011;56589;51.992;5.924;2023-08-06T14:12:37;7.90;;;3.50;;
69401;SDS011;56589;51.992;5.924;2023-08-06T14:15:04;7.97;;;3.55;;
69401;SDS011;56589;51.992;5.924;2023-08-06T14:17:32;5.40;;;2.65;;
69401;SDS011;56589;51.992;5.924;2023-08-06T14:20:03;7.47;;;2.80;;
69401;SDS011;56589;51.992;5.924;2023-08-06T14:22:34;8.13;;;3.50;;
69401;SDS011;56589;51.992;5.924;2023-08-06T14:25:00;6.75;;;3.03;;
69401;SDS011;56589;51.992;5.924;2023-08-06T14:27:26;4.80;;;3.10;;
69401;SDS011;56589;51.992;5.924;2023-08-06T14:29:53;5.38;;;2.67;;
69401;SDS011;56589;51.992;5.924;2023-08-06T14:32:20;7.63;;;3.40;;
69401;SDS011;56589;51.992;5.924;2023-08-06T14:34:47;6.63;;;3.00;;